createdAt,value
2023-02-12T00:01:37.238Z,46.22
2023-02-12T00:04:06.950Z,48.85
2023-02-12T00:06:35.466Z,46.25
2023-02-12T00:09:04.124Z,39.50
2023-02-12T00:11:32.640Z,56.10
2023-02-12T00:14:02.978Z,46.95
2023-02-12T00:16:31.773Z,38.17
2023-02-12T00:19:00.817Z,40.65
2023-02-12T00:21:30.568Z,34.40
2023-02-12T00:23:59.180Z,32.00
2023-02-12T00:26:27.678Z,35.30
2023-02-12T00:28:56.346Z,36.10
2023-02-12T00:31:27.006Z,40.10
2023-02-12T00:33:59.194Z,28.88
2023-02-12T00:36:31.387Z,31.63
2023-02-12T00:39:02.175Z,30.70
2023-02-12T00:41:31.240Z,28.95
2023-02-12T00:43:59.788Z,33.63
2023-02-12T00:46:28.258Z,32.15
2023-02-12T00:48:56.883Z,36.15
2023-02-12T00:51:25.193Z,34.88
2023-02-12T00:53:55.175Z,38.35
2023-02-12T00:56:23.477Z,29.15
2023-02-12T00:58:51.982Z,34.42
2023-02-12T01:01:20.602Z,36.33
2023-02-12T01:03:49.194Z,38.45
2023-02-12T01:06:17.794Z,40.20
2023-02-12T01:08:52.518Z,36.88
2023-02-12T01:11:22.442Z,32.88
2023-02-12T01:13:50.762Z,30.63
2023-02-12T01:16:23.404Z,30.33
2023-02-12T01:18:55.642Z,41.90
2023-02-12T01:21:29.073Z,36.35
2023-02-12T01:23:57.620Z,46.20
2023-02-12T01:26:28.235Z,36.17
2023-02-12T01:29:01.885Z,30.65
2023-02-12T01:31:33.122Z,36.38
2023-02-12T01:34:02.273Z,32.97
2023-02-12T01:36:31.662Z,32.42
2023-02-12T01:39:02.658Z,35.63
2023-02-12T01:41:35.289Z,27.92
2023-02-12T01:44:11.448Z,29.33
2023-02-12T01:46:40.867Z,24.60
2023-02-12T01:49:15.741Z,30.15
2023-02-12T01:51:46.105Z,30.30
2023-02-12T01:54:17.470Z,26.88
2023-02-12T01:56:47.220Z,30.30
2023-02-12T01:59:15.917Z,27.05
2023-02-12T02:01:44.712Z,30.10
2023-02-12T02:04:17.469Z,30.52
2023-02-12T02:06:53.621Z,25.77
2023-02-12T02:09:22.140Z,22.50
2023-02-12T02:12:09.476Z,29.60
2023-02-12T02:14:39.887Z,27.13
2023-02-12T02:17:52.893Z,30.35
2023-02-12T02:21:14.338Z,28.55
2023-02-12T02:24:18.161Z,32.08
2023-02-12T02:27:26.476Z,34.58
2023-02-12T02:30:36.875Z,35.17
2023-02-12T02:33:26.256Z,32.10
2023-02-12T02:36:05.205Z,31.90
2023-02-12T02:38:42.322Z,35.03
2023-02-12T02:41:16.650Z,33.53
2023-02-12T02:43:49.324Z,34.20
2023-02-12T02:46:26.663Z,32.65
2023-02-12T02:49:00.413Z,31.95
2023-02-12T02:51:34.194Z,36.55
2023-02-12T02:54:10.531Z,29.05
2023-02-12T02:56:42.377Z,27.90
2023-02-12T02:59:15.171Z,31.20
2023-02-12T03:01:49.065Z,28.55
2023-02-12T03:04:26.841Z,31.17
2023-02-12T03:07:01.894Z,31.73
2023-02-12T03:09:37.079Z,37.30
2023-02-12T03:12:10.861Z,31.58
2023-02-12T03:14:45.771Z,30.77
2023-02-12T03:17:22.461Z,31.50
2023-02-12T03:19:58.746Z,29.92
2023-02-12T03:22:32.413Z,26.92
2023-02-12T03:25:09.625Z,26.13
2023-02-12T03:27:43.064Z,31.45
2023-02-12T03:30:13.705Z,26.42
2023-02-12T03:32:50.846Z,38.45
2023-02-12T03:35:26.185Z,31.73
2023-02-12T03:38:03.914Z,46.47
2023-02-12T03:40:40.682Z,26.85
2023-02-12T03:43:20.717Z,36.15
2023-02-12T03:45:56.920Z,22.92
2023-02-12T03:48:33.398Z,36.03
2023-02-12T03:51:12.762Z,32.55
2023-02-12T03:53:42.857Z,27.60
2023-02-12T03:56:16.386Z,28.60
2023-02-12T03:58:46.424Z,25.75
2023-02-12T04:01:15.549Z,26.70
2023-02-12T04:03:45.593Z,25.75
2023-02-12T04:06:23.190Z,24.58
2023-02-12T04:08:52.108Z,20.85
2023-02-12T04:11:31.850Z,27.88
2023-02-12T04:14:15.563Z,25.77
2023-02-12T04:16:52.057Z,25.45
2023-02-12T04:19:35.831Z,27.10
2023-02-12T04:22:24.326Z,26.95
2023-02-12T04:25:06.583Z,30.92
2023-02-12T04:27:46.375Z,30.73
2023-02-12T04:30:25.198Z,31.38
2023-02-12T04:32:58.196Z,26.00
2023-02-12T04:35:34.946Z,32.22
2023-02-12T04:38:10.981Z,28.25
2023-02-12T04:40:41.229Z,27.92
2023-02-12T04:43:09.946Z,23.13
2023-02-12T04:45:39.453Z,25.65
2023-02-12T04:48:08.307Z,27.33
2023-02-12T04:50:43.319Z,34.70
2023-02-12T04:53:12.136Z,31.25
2023-02-12T04:55:40.787Z,35.80
2023-02-12T04:58:09.601Z,28.20
2023-02-12T05:00:38.180Z,29.13
2023-02-12T05:03:06.781Z,25.88
2023-02-12T05:05:35.411Z,30.00
2023-02-12T05:08:05.346Z,35.90
2023-02-12T05:10:33.852Z,27.27
2023-02-12T05:13:02.846Z,27.02
2023-02-12T05:15:31.401Z,25.00
2023-02-12T05:17:59.894Z,21.95
2023-02-12T05:20:28.417Z,29.13
2023-02-12T05:22:56.623Z,26.42
2023-02-12T05:25:26.502Z,27.08
2023-02-12T05:27:56.684Z,21.48
2023-02-12T05:30:25.349Z,25.23
2023-02-12T05:32:53.810Z,29.77
2023-02-12T05:35:22.337Z,27.85
2023-02-12T05:37:50.830Z,27.02
2023-02-12T05:40:19.610Z,28.17
2023-02-12T05:42:49.269Z,37.10
2023-02-12T05:45:17.857Z,34.20
2023-02-12T05:47:46.388Z,31.92
2023-02-12T05:50:14.926Z,32.53
2023-02-12T05:52:43.107Z,31.05
2023-02-12T05:55:11.620Z,32.58
2023-02-12T05:57:39.864Z,30.92
2023-02-12T06:00:12.738Z,33.53
2023-02-12T06:02:41.747Z,33.05
2023-02-12T06:05:09.965Z,31.00
2023-02-12T06:07:38.533Z,36.08
2023-02-12T06:10:08.668Z,44.78
2023-02-12T06:12:37.285Z,31.25
2023-02-12T06:15:06.231Z,43.17
2023-02-12T06:17:37.195Z,27.23
2023-02-12T06:20:06.601Z,36.05
2023-02-12T06:22:35.094Z,32.67
2023-02-12T06:25:03.913Z,41.53
2023-02-12T06:27:32.471Z,33.63
2023-02-12T06:30:01.001Z,35.72
2023-02-12T06:32:29.766Z,35.65
2023-02-12T06:34:59.362Z,29.02
2023-02-12T06:37:27.911Z,37.88
2023-02-12T06:39:56.425Z,33.85
2023-02-12T06:42:24.914Z,42.22
2023-02-12T06:44:53.438Z,32.15
2023-02-12T06:47:21.940Z,37.03
2023-02-12T06:49:50.115Z,35.22
2023-02-12T06:52:21.124Z,35.25
2023-02-12T06:54:49.680Z,33.47
2023-02-12T06:57:17.853Z,39.13
2023-02-12T06:59:46.432Z,31.40
2023-02-12T07:02:14.621Z,40.40
2023-02-12T07:04:42.856Z,47.97
2023-02-12T07:07:11.220Z,41.67
2023-02-12T07:09:40.890Z,39.10
2023-02-12T07:12:09.554Z,37.53
2023-02-12T07:14:38.361Z,33.65
2023-02-12T07:17:08.603Z,33.83
2023-02-12T07:19:37.377Z,40.30
2023-02-12T07:22:05.978Z,34.70
2023-02-12T07:24:34.548Z,32.35
2023-02-12T07:27:04.119Z,31.90
2023-02-12T07:29:32.798Z,35.85
2023-02-12T07:32:02.259Z,33.33
2023-02-12T07:34:30.989Z,35.88
2023-02-12T07:36:59.538Z,33.72
2023-02-12T07:39:28.780Z,29.65
2023-02-12T07:41:58.219Z,35.60
2023-02-12T07:44:27.857Z,35.95
2023-02-12T07:46:56.387Z,32.90
2023-02-12T07:49:25.532Z,37.20
2023-02-12T07:51:56.760Z,39.28
2023-02-12T07:54:25.542Z,33.70
2023-02-12T07:56:54.093Z,35.42
2023-02-12T07:59:22.702Z,35.58
2023-02-12T08:01:54.049Z,31.73
2023-02-12T08:04:26.139Z,37.95
2023-02-12T08:06:56.816Z,35.55
2023-02-12T08:09:28.269Z,33.17
2023-02-12T08:11:56.910Z,29.95
2023-02-12T08:14:25.688Z,35.35
2023-02-12T08:16:55.433Z,31.92
2023-02-12T08:19:26.626Z,38.50
2023-02-12T08:21:57.871Z,30.38
2023-02-12T08:24:26.845Z,35.90
2023-02-12T08:26:55.625Z,36.85
2023-02-12T08:29:28.110Z,39.15
2023-02-12T08:31:59.942Z,33.10
2023-02-12T08:34:31.377Z,39.72
2023-02-12T08:37:00.137Z,37.90
2023-02-12T08:39:31.382Z,33.78
2023-02-12T08:42:01.778Z,34.67
2023-02-12T08:44:30.542Z,33.35
2023-02-12T08:47:00.232Z,40.28
2023-02-12T08:49:31.321Z,28.83
2023-02-12T08:52:02.039Z,33.17
2023-02-12T08:54:32.568Z,56.08
2023-02-12T08:57:03.419Z,41.72
2023-02-12T08:59:32.338Z,44.70
2023-02-12T09:02:02.508Z,37.13
2023-02-12T09:04:31.149Z,39.75
2023-02-12T09:06:59.687Z,35.22
2023-02-12T09:09:28.067Z,34.78
2023-02-12T09:11:56.661Z,40.67
2023-02-12T09:14:31.165Z,44.05
2023-02-12T09:17:02.877Z,32.90
2023-02-12T09:19:31.968Z,35.42
2023-02-12T09:22:00.773Z,36.78
2023-02-12T09:24:29.388Z,37.35
2023-02-12T09:26:58.054Z,37.00
2023-02-12T09:29:26.665Z,41.10
2023-02-12T09:31:55.364Z,39.83
2023-02-12T09:34:25.035Z,41.13
2023-02-12T09:36:53.621Z,38.05
2023-02-12T09:39:22.170Z,40.92
2023-02-12T09:42:26.549Z,48.13
2023-02-12T09:45:05.112Z,43.03
2023-02-12T09:47:43.769Z,40.78
2023-02-12T09:50:38.455Z,42.80
2023-02-12T09:53:07.221Z,33.72
2023-02-12T09:55:36.760Z,40.70
2023-02-12T09:58:13.943Z,37.47
2023-02-12T10:00:42.237Z,46.22
2023-02-12T10:03:16.941Z,48.25
2023-02-12T10:08:42.655Z,39.75
2023-02-12T10:11:27.910Z,45.45
2023-02-12T10:14:11.805Z,44.70
2023-02-12T10:16:54.867Z,45.50
2023-02-12T10:19:42.470Z,42.85
2023-02-12T10:22:22.620Z,42.65
2023-02-12T10:25:04.118Z,43.75
2023-02-12T10:27:41.153Z,47.08
2023-02-12T10:30:20.853Z,54.42
2023-02-12T10:32:55.767Z,48.47
2023-02-12T10:35:26.090Z,58.92
2023-02-12T10:38:01.998Z,50.08
2023-02-12T10:40:34.586Z,42.97
2023-02-12T10:43:04.663Z,41.17
2023-02-12T10:45:36.517Z,48.10
2023-02-12T10:48:15.769Z,48.50
2023-02-12T10:51:02.032Z,52.50
2023-02-12T10:53:36.889Z,53.30
2023-02-12T10:56:19.033Z,51.65
2023-02-12T10:58:56.759Z,43.30
2023-02-12T11:01:29.005Z,48.55
2023-02-12T11:04:00.112Z,42.40
2023-02-12T11:06:33.308Z,49.17
2023-02-12T11:09:04.503Z,48.17
2023-02-12T11:11:39.898Z,50.28
2023-02-12T11:14:19.030Z,46.25
2023-02-12T11:16:55.003Z,47.13
2023-02-12T11:19:26.447Z,53.13
2023-02-12T11:22:08.462Z,47.45
2023-02-12T11:24:39.530Z,52.15
2023-02-12T11:27:25.533Z,51.20
2023-02-12T11:30:20.190Z,47.00
2023-02-12T11:32:51.608Z,43.87
2023-02-12T11:35:25.806Z,52.47
2023-02-12T11:37:57.840Z,54.15
2023-02-12T11:40:30.087Z,54.05
2023-02-12T11:43:01.600Z,43.53
2023-02-12T11:45:35.589Z,53.95
2023-02-12T11:48:04.411Z,47.35
2023-02-12T11:50:34.181Z,47.28
2023-02-12T11:53:09.353Z,42.22
2023-02-12T11:55:42.223Z,48.95
2023-02-12T11:58:17.981Z,49.83
2023-02-12T12:00:53.034Z,48.33
2023-02-12T12:03:29.378Z,48.65
2023-02-12T12:06:03.834Z,43.85
2023-02-12T12:08:40.514Z,43.10
2023-02-12T12:11:17.200Z,38.40
2023-02-12T12:13:52.063Z,37.80
2023-02-12T12:19:49.969Z,40.58
2023-02-12T12:22:42.138Z,37.05
2023-02-12T12:25:21.906Z,42.50
2023-02-12T12:28:13.341Z,44.10
2023-02-12T12:31:00.786Z,38.80
2023-02-12T12:33:39.858Z,37.78
2023-02-12T12:36:52.405Z,37.95
2023-02-12T12:39:29.677Z,36.78
2023-02-12T12:42:48.387Z,28.48
2023-02-12T12:45:36.274Z,26.67
2023-02-12T12:48:24.256Z,28.85
2023-02-12T12:51:14.725Z,31.05
2023-02-12T12:53:57.076Z,23.20
2023-02-12T12:56:43.461Z,29.33
2023-02-12T12:59:47.702Z,28.60
2023-02-12T13:03:29.210Z,26.20
2023-02-12T13:06:33.330Z,22.92
2023-02-12T13:09:31.655Z,21.42
2023-02-12T13:12:28.629Z,21.58
2023-02-12T13:15:04.694Z,22.10
2023-02-12T13:17:41.350Z,22.45
2023-02-12T13:20:21.014Z,28.60
2023-02-12T13:22:58.607Z,25.60
2023-02-12T13:25:32.766Z,25.48
2023-02-12T13:28:03.865Z,32.33
2023-02-12T13:30:39.403Z,30.58
2023-02-12T13:33:14.379Z,25.00
2023-02-12T13:35:49.489Z,31.02
2023-02-12T13:38:25.600Z,31.27
2023-02-12T13:40:59.623Z,36.40
2023-02-12T13:43:50.613Z,32.65
2023-02-12T13:46:31.168Z,32.92
2023-02-12T13:49:15.397Z,32.42
2023-02-12T13:51:49.610Z,34.20
2023-02-12T13:54:35.505Z,28.40
2023-02-12T13:57:08.933Z,34.05
2023-02-12T13:59:44.238Z,29.50
2023-02-12T14:02:52.595Z,24.95
2023-02-12T14:05:31.271Z,28.05
2023-02-12T14:08:05.896Z,29.65
2023-02-12T14:10:38.810Z,27.05
2023-02-12T14:13:21.991Z,30.90
2023-02-12T14:15:53.704Z,22.50
2023-02-12T14:18:35.403Z,24.58
2023-02-12T14:21:43.992Z,31.88
2023-02-12T14:25:03.529Z,27.80
2023-02-12T14:27:38.150Z,26.38
2023-02-12T14:30:34.300Z,23.90
2023-02-12T14:33:27.315Z,21.63
2023-02-12T14:36:18.323Z,22.00
2023-02-12T14:39:04.305Z,25.67
2023-02-12T14:41:41.733Z,27.92
2023-02-12T14:44:49.087Z,20.70
2023-02-12T14:47:54.233Z,27.77
2023-02-12T14:50:32.362Z,24.63
2023-02-12T14:53:13.724Z,24.35
2023-02-12T14:55:46.950Z,28.75
2023-02-12T14:58:21.163Z,29.67
2023-02-12T15:00:56.001Z,27.42
2023-02-12T15:03:33.187Z,23.20
2023-02-12T15:06:14.349Z,27.00
2023-02-12T15:08:49.917Z,25.13
2023-02-12T15:11:34.997Z,26.38
2023-02-12T15:14:08.798Z,27.92
2023-02-12T15:16:50.197Z,31.07
2023-02-12T15:19:35.310Z,29.63
2023-02-12T15:22:04.052Z,26.10
2023-02-12T15:24:32.581Z,27.98
2023-02-12T15:27:02.031Z,29.00
2023-02-12T15:29:39.286Z,40.47
2023-02-12T15:32:15.575Z,38.35
2023-02-12T15:34:45.516Z,32.83
2023-02-12T15:37:24.469Z,32.83
2023-02-12T15:39:56.968Z,29.02
2023-02-12T15:42:32.898Z,30.52
2023-02-12T15:45:23.091Z,33.42
2023-02-12T15:48:20.610Z,32.42
2023-02-12T15:50:55.076Z,30.80
2023-02-12T15:53:24.469Z,37.13
2023-02-12T15:55:53.735Z,29.42
2023-02-12T15:58:25.722Z,52.42
2023-02-12T16:01:00.775Z,43.60
2023-02-12T16:03:32.356Z,37.40
2023-02-12T16:06:11.108Z,42.20
2023-02-12T16:08:40.839Z,36.28
2023-02-12T16:11:14.692Z,33.03
2023-02-12T16:13:47.967Z,37.20
2023-02-12T16:16:24.562Z,42.92
2023-02-12T16:19:08.792Z,35.22
2023-02-12T16:21:40.057Z,28.02
2023-02-12T16:24:28.557Z,33.67
2023-02-12T16:26:58.868Z,32.60
2023-02-12T16:29:28.148Z,29.48
2023-02-12T16:32:03.402Z,39.05
2023-02-12T16:34:36.633Z,34.13
2023-02-12T16:37:24.611Z,37.67
2023-02-12T16:40:26.056Z,34.22
2023-02-12T16:43:26.462Z,40.60
2023-02-12T16:46:06.314Z,35.35
2023-02-12T16:48:42.896Z,33.78
2023-02-12T16:51:24.735Z,32.53
2023-02-12T16:53:57.344Z,34.97
2023-02-12T16:56:29.346Z,30.55
2023-02-12T16:59:00.320Z,32.45
2023-02-12T17:01:33.384Z,38.13
2023-02-12T17:04:06.737Z,33.17
2023-02-12T17:06:35.342Z,27.77
2023-02-12T17:09:03.551Z,38.95
2023-02-12T17:11:31.804Z,34.10
2023-02-12T17:14:00.305Z,25.98
2023-02-12T17:16:31.092Z,31.73
2023-02-12T17:19:00.568Z,31.10
2023-02-12T17:21:37.699Z,27.27
2023-02-12T17:24:07.083Z,32.88
2023-02-12T17:26:35.550Z,34.38
2023-02-12T17:29:06.079Z,31.08
2023-02-12T17:31:35.113Z,39.42
2023-02-12T17:34:03.697Z,39.35
2023-02-12T17:36:33.551Z,34.13
2023-02-12T17:39:03.857Z,26.98
2023-02-12T17:41:32.741Z,27.10
2023-02-12T17:44:01.393Z,28.20
2023-02-12T17:46:31.020Z,42.70
2023-02-12T17:48:59.410Z,30.98
2023-02-12T17:51:27.709Z,29.38
2023-02-12T17:53:57.630Z,28.45
2023-02-12T17:56:26.495Z,30.30
2023-02-12T17:58:55.210Z,31.55
2023-02-12T18:01:25.113Z,26.33
2023-02-12T18:03:55.771Z,26.48
2023-02-12T18:06:28.129Z,33.63
2023-02-12T18:08:58.631Z,24.70
2023-02-12T18:11:27.630Z,46.40
2023-02-12T18:13:57.676Z,36.00
2023-02-12T18:16:28.128Z,27.83
2023-02-12T18:18:57.110Z,26.25
2023-02-12T18:21:25.679Z,25.77
2023-02-12T18:23:55.413Z,27.35
2023-02-12T18:26:25.358Z,31.25
2023-02-12T18:28:54.587Z,33.47
2023-02-12T18:31:23.370Z,28.25
2023-02-12T18:33:52.192Z,40.22
2023-02-12T18:36:22.275Z,36.90
2023-02-12T18:38:52.747Z,27.60
2023-02-12T18:41:26.107Z,29.15
2023-02-12T18:43:55.266Z,33.03
2023-02-12T18:46:26.508Z,28.42
2023-02-12T18:48:55.393Z,30.27
2023-02-12T18:51:26.249Z,30.88
2023-02-12T18:54:01.610Z,29.65
2023-02-12T18:56:33.204Z,29.27
2023-02-12T18:59:05.705Z,26.73
2023-02-12T19:01:35.887Z,26.23
2023-02-12T19:04:07.158Z,28.73
2023-02-12T19:06:40.598Z,31.20
2023-02-12T19:09:09.830Z,24.85
2023-02-12T19:11:39.451Z,22.40
2023-02-12T19:14:07.983Z,25.42
2023-02-12T19:16:36.832Z,33.30
2023-02-12T19:19:05.444Z,34.60
2023-02-12T19:21:33.939Z,31.13
2023-02-12T19:24:05.205Z,35.33
2023-02-12T19:26:35.674Z,33.08
2023-02-12T19:29:05.940Z,33.92
2023-02-12T19:31:37.374Z,26.67
2023-02-12T19:34:08.440Z,27.05
2023-02-12T19:36:37.769Z,27.20
2023-02-12T19:39:07.525Z,28.92
2023-02-12T19:41:40.647Z,29.70
2023-02-12T19:44:13.591Z,27.17
2023-02-12T19:46:42.504Z,31.85
2023-02-12T19:49:15.506Z,27.77
2023-02-12T19:51:43.857Z,24.60
2023-02-12T19:54:14.931Z,26.58
2023-02-12T19:56:43.947Z,26.73
2023-02-12T19:59:17.092Z,21.52
2023-02-12T20:01:45.950Z,23.40
2023-02-12T20:04:15.766Z,23.17
2023-02-12T20:06:45.784Z,23.73
2023-02-12T20:09:15.013Z,29.40
2023-02-12T20:11:43.886Z,22.85
2023-02-12T20:14:15.175Z,24.88
2023-02-12T20:16:46.652Z,27.98
2023-02-12T20:19:17.978Z,25.67
2023-02-12T20:21:48.705Z,20.45
2023-02-12T20:24:17.378Z,21.85
2023-02-12T20:26:45.896Z,24.15
2023-02-12T20:29:15.878Z,24.00
2023-02-12T20:31:45.564Z,25.85
2023-02-12T20:34:16.760Z,23.27
2023-02-12T20:36:46.883Z,24.13
2023-02-12T20:39:18.073Z,33.17
2023-02-12T20:41:46.650Z,29.90
2023-02-12T20:44:19.895Z,22.60
2023-02-12T20:46:52.506Z,20.98
2023-02-12T20:49:24.618Z,21.15
2023-02-12T20:51:53.238Z,24.42
2023-02-12T20:54:21.841Z,26.48
2023-02-12T20:56:51.448Z,29.33
2023-02-12T20:59:21.106Z,25.70
2023-02-12T21:01:49.649Z,28.67
2023-02-12T21:04:20.729Z,32.60
2023-02-12T21:06:49.416Z,32.33
2023-02-12T21:09:18.656Z,25.10
2023-02-12T21:11:47.721Z,27.83
2023-02-12T21:14:22.773Z,26.70
2023-02-12T21:16:53.806Z,21.70
2023-02-12T21:19:22.932Z,17.80
2023-02-12T21:21:51.436Z,26.65
2023-02-12T21:24:22.557Z,25.40
2023-02-12T21:26:51.847Z,30.98
2023-02-12T21:29:21.399Z,26.52
2023-02-12T21:31:52.826Z,38.28
2023-02-12T21:34:23.954Z,26.15
2023-02-12T21:36:55.068Z,29.30
2023-02-12T21:39:27.227Z,28.00
2023-02-12T21:41:58.341Z,28.65
2023-02-12T21:44:27.561Z,26.45
2023-02-12T21:46:58.544Z,23.50
2023-02-12T21:49:28.020Z,31.55
2023-02-12T21:51:59.178Z,24.75
2023-02-12T21:54:28.858Z,24.55
2023-02-12T21:56:57.671Z,27.75
2023-02-12T21:59:26.465Z,23.45
2023-02-12T22:01:58.548Z,29.67
2023-02-12T22:04:27.328Z,25.70
2023-02-12T22:06:56.510Z,23.15
2023-02-12T22:09:25.415Z,20.45
2023-02-12T22:11:53.693Z,29.50
2023-02-12T22:14:23.030Z,23.30
2023-02-12T22:16:51.641Z,28.25
2023-02-12T22:19:21.325Z,23.70
2023-02-12T22:21:52.388Z,26.40
2023-02-12T22:24:22.147Z,23.55
2023-02-12T22:26:50.516Z,20.92
2023-02-12T22:29:19.311Z,25.35
2023-02-12T22:31:48.501Z,21.25
2023-02-12T22:34:20.456Z,29.60
2023-02-12T22:36:49.073Z,25.15
2023-02-12T22:39:18.474Z,20.13
2023-02-12T22:41:47.132Z,20.38
2023-02-12T22:44:18.347Z,21.08
2023-02-12T22:46:48.130Z,24.95
2023-02-12T22:49:17.618Z,18.42
2023-02-12T22:51:47.316Z,14.57
2023-02-12T22:54:18.467Z,15.02
2023-02-12T22:56:50.843Z,12.02
2023-02-12T22:59:19.591Z,18.27
2023-02-12T23:01:48.110Z,16.67
2023-02-12T23:04:18.583Z,20.08
2023-02-12T23:06:48.646Z,14.70
2023-02-12T23:09:19.164Z,15.55
2023-02-12T23:11:48.278Z,16.52
2023-02-12T23:14:16.592Z,11.15
2023-02-12T23:16:45.542Z,15.35
2023-02-12T23:19:14.457Z,16.67
2023-02-12T23:21:43.370Z,11.82
2023-02-12T23:24:16.068Z,16.65
2023-02-12T23:26:45.867Z,11.57
2023-02-12T23:29:14.478Z,16.23
2023-02-12T23:31:43.112Z,10.77
2023-02-12T23:34:11.709Z,16.55
2023-02-12T23:36:40.280Z,11.82
2023-02-12T23:39:09.522Z,12.15
2023-02-12T23:41:39.250Z,15.60
2023-02-12T23:44:08.003Z,9.57
2023-02-12T23:46:36.682Z,17.27
2023-02-12T23:49:05.511Z,13.63
2023-02-12T23:51:34.162Z,13.13
2023-02-12T23:54:03.112Z,18.08
2023-02-12T23:56:31.350Z,10.93
2023-02-12T23:59:00.904Z,12.70
